createdAt,value
2022-10-23T00:01:45.166Z,15.54
2022-10-23T00:04:17.460Z,15.51
2022-10-23T00:06:45.584Z,15.38
2022-10-23T00:09:17.553Z,15.37
2022-10-23T00:11:50.247Z,15.30
2022-10-23T00:14:23.001Z,15.30
2022-10-23T00:16:51.086Z,15.43
2022-10-23T00:19:19.184Z,15.45
2022-10-23T00:21:46.801Z,15.52
2022-10-23T00:24:14.686Z,15.52
2022-10-23T00:26:42.419Z,15.48
2022-10-23T00:29:12.421Z,15.47
2022-10-23T00:32:05.538Z,15.55
2022-10-23T00:34:33.540Z,15.62
2022-10-23T00:37:01.024Z,15.71
2022-10-23T00:39:28.893Z,15.74
2022-10-23T00:41:56.901Z,15.66
2022-10-23T00:44:24.495Z,15.63
2022-10-23T00:46:51.984Z,15.60
2022-10-23T00:49:20.518Z,15.61
2022-10-23T00:51:55.974Z,15.55
2022-10-23T00:54:27.579Z,15.58
2022-10-23T00:57:01.978Z,15.59
2022-10-23T00:59:31.124Z,15.47
2022-10-23T01:01:59.854Z,15.45
2022-10-23T01:04:29.380Z,15.31
2022-10-23T01:07:35.462Z,15.34
2022-10-23T01:10:20.080Z,15.41
2022-10-23T01:13:55.346Z,15.45
2022-10-23T01:16:57.722Z,15.42
2022-10-23T01:20:01.373Z,15.40
2022-10-23T01:22:35.659Z,15.36
2022-10-23T01:25:36.504Z,15.31
2022-10-23T01:28:16.246Z,15.30
2022-10-23T01:30:45.338Z,15.37
2022-10-23T01:33:27.452Z,15.44
2022-10-23T01:36:06.926Z,15.44
2022-10-23T01:38:51.489Z,15.38
2022-10-23T01:41:36.504Z,15.30
2022-10-23T01:44:28.529Z,15.28
2022-10-23T01:46:57.830Z,15.18
2022-10-23T01:49:30.024Z,15.17
2022-10-23T01:52:03.778Z,15.09
2022-10-23T01:54:36.434Z,15.11
2022-10-23T01:57:07.756Z,15.22
2022-10-23T01:59:41.953Z,15.23
2022-10-23T02:02:13.683Z,15.16
2022-10-23T02:05:08.470Z,15.18
2022-10-23T02:07:37.016Z,15.17
2022-10-23T02:10:10.169Z,15.13
2022-10-23T02:13:07.437Z,15.16
2022-10-23T02:15:43.884Z,15.23
2022-10-23T02:18:51.233Z,15.21
2022-10-23T02:21:34.226Z,15.23
2022-10-23T02:24:09.497Z,15.32
2022-10-23T02:26:54.072Z,15.32
2022-10-23T02:29:36.347Z,15.33
2022-10-23T02:32:03.848Z,15.34
2022-10-23T02:34:32.542Z,15.34
2022-10-23T02:37:00.705Z,15.35
2022-10-23T02:39:29.345Z,15.23
2022-10-23T02:42:35.671Z,15.20
2022-10-23T02:46:00.183Z,15.21
2022-10-23T02:51:49.270Z,15.08
2022-10-23T02:54:35.437Z,15.13
2022-10-23T02:57:31.144Z,15.15
2022-10-23T03:00:05.640Z,15.16
2022-10-23T03:05:59.180Z,15.24
2022-10-23T03:08:27.000Z,15.28
2022-10-23T03:10:54.512Z,15.32
2022-10-23T03:13:24.338Z,15.36
2022-10-23T03:15:53.110Z,15.40
2022-10-23T03:18:20.992Z,15.45
2022-10-23T03:20:51.036Z,15.44
2022-10-23T03:23:22.682Z,15.43
2022-10-23T03:25:50.497Z,15.39
2022-10-23T03:28:32.248Z,15.30
2022-10-23T03:31:02.236Z,15.24
2022-10-23T03:33:31.630Z,15.24
2022-10-23T03:36:08.024Z,15.25
2022-10-23T03:38:36.352Z,15.29
2022-10-23T03:41:05.243Z,15.28
2022-10-23T03:43:33.218Z,15.27
2022-10-23T03:46:02.064Z,15.28
2022-10-23T03:48:30.069Z,15.28
2022-10-23T03:50:59.448Z,15.26
2022-10-23T03:53:27.156Z,15.30
2022-10-23T03:55:54.715Z,15.33
2022-10-23T03:58:22.534Z,15.31
2022-10-23T04:00:52.781Z,15.32
2022-10-23T04:03:20.552Z,15.31
2022-10-23T04:05:50.070Z,15.31
2022-10-23T04:08:22.623Z,15.32
2022-10-23T04:10:55.180Z,15.36
2022-10-23T04:13:34.658Z,15.19
2022-10-23T04:16:02.456Z,15.16
2022-10-23T04:18:30.168Z,15.06
2022-10-23T04:20:57.798Z,14.95
2022-10-23T04:23:25.680Z,14.88
2022-10-23T04:25:58.054Z,14.81
2022-10-23T04:28:27.616Z,14.72
2022-10-23T04:30:55.585Z,14.70
2022-10-23T04:33:25.256Z,14.72
2022-10-23T04:35:53.282Z,14.73
2022-10-23T04:38:20.991Z,14.73
2022-10-23T04:40:50.343Z,14.73
2022-10-23T04:43:22.748Z,14.80
2022-10-23T04:45:50.448Z,14.81
2022-10-23T04:48:18.556Z,14.81
2022-10-23T04:51:10.691Z,14.79
2022-10-23T04:53:56.776Z,14.88
2022-10-23T04:56:44.692Z,14.82
2022-10-23T04:59:16.812Z,14.87
2022-10-23T05:01:44.825Z,14.89
2022-10-23T05:04:14.439Z,14.81
2022-10-23T05:07:00.507Z,14.77
2022-10-23T05:09:40.972Z,14.81
2022-10-23T05:12:25.513Z,14.85
2022-10-23T05:14:54.508Z,14.87
2022-10-23T05:17:32.228Z,14.93
2022-10-23T05:20:03.534Z,14.98
2022-10-23T05:22:37.075Z,15.06
2022-10-23T05:25:09.665Z,15.07
2022-10-23T05:27:37.237Z,15.17
2022-10-23T05:30:10.901Z,15.16
2022-10-23T05:32:39.761Z,15.18
2022-10-23T05:35:13.161Z,15.17
2022-10-23T05:37:43.946Z,15.18
2022-10-23T05:40:18.142Z,15.06
2022-10-23T05:42:46.906Z,15.12
2022-10-23T05:45:18.440Z,15.05
2022-10-23T05:48:11.230Z,14.98
2022-10-23T05:51:10.810Z,15.03
2022-10-23T05:53:50.095Z,15.00
2022-10-23T05:56:43.267Z,15.10
2022-10-23T05:59:22.966Z,15.08
2022-10-23T06:02:09.691Z,15.10
2022-10-23T06:04:50.749Z,15.09
2022-10-23T06:07:36.965Z,15.10
2022-10-23T06:10:07.640Z,15.19
2022-10-23T06:12:40.399Z,15.24
2022-10-23T06:15:11.329Z,15.29
2022-10-23T06:18:17.555Z,15.29
2022-10-23T06:21:01.667Z,15.37
2022-10-23T06:23:33.234Z,15.43
2022-10-23T06:26:21.126Z,15.52
2022-10-23T06:29:09.059Z,15.62
2022-10-23T06:31:37.234Z,15.70
2022-10-23T06:34:06.244Z,15.79
2022-10-23T06:36:34.055Z,15.87
2022-10-23T06:39:21.294Z,15.92
2022-10-23T06:42:09.014Z,15.95
2022-10-23T06:44:55.214Z,15.95
2022-10-23T06:47:41.431Z,15.98
2022-10-23T06:50:15.757Z,16.04
2022-10-23T06:52:47.697Z,16.11
2022-10-23T06:55:19.180Z,16.16
2022-10-23T06:57:47.429Z,16.25
2022-10-23T07:00:16.517Z,16.27
2022-10-23T07:02:51.702Z,16.35
2022-10-23T07:05:20.690Z,16.37
2022-10-23T07:07:48.630Z,16.39
2022-10-23T07:10:23.013Z,16.39
2022-10-23T07:13:01.048Z,16.44
2022-10-23T07:15:41.062Z,16.48
2022-10-23T07:18:14.696Z,16.58
2022-10-23T07:21:02.504Z,16.53
2022-10-23T07:23:31.933Z,16.51
2022-10-23T07:26:15.256Z,16.54
2022-10-23T07:28:46.366Z,16.59
2022-10-23T07:31:18.346Z,16.63
2022-10-23T07:34:04.997Z,16.57
2022-10-23T07:36:33.167Z,16.55
2022-10-23T07:39:00.650Z,16.57
2022-10-23T07:41:29.399Z,16.62
2022-10-23T07:43:56.822Z,16.71
2022-10-23T07:46:24.709Z,16.75
2022-10-23T07:48:53.303Z,16.85
2022-10-23T07:51:22.297Z,16.94
2022-10-23T07:53:56.577Z,17.00
2022-10-23T07:56:43.121Z,17.02
2022-10-23T07:59:17.104Z,17.07
2022-10-23T08:01:53.864Z,17.12
2022-10-23T08:04:27.347Z,17.18
2022-10-23T08:07:15.474Z,17.24
2022-10-23T08:09:45.671Z,17.30
2022-10-23T08:12:13.797Z,17.38
2022-10-23T08:14:41.674Z,17.46
2022-10-23T08:17:10.070Z,17.53
2022-10-23T08:20:13.654Z,17.61
2022-10-23T08:22:44.621Z,17.66
2022-10-23T08:25:17.735Z,17.74
2022-10-23T08:27:46.729Z,17.81
2022-10-23T08:30:15.776Z,17.89
2022-10-23T08:32:45.085Z,17.99
2022-10-23T08:35:14.388Z,18.05
2022-10-23T08:37:42.550Z,18.10
2022-10-23T08:40:20.299Z,18.14
2022-10-23T08:43:11.065Z,18.19
2022-10-23T08:46:00.135Z,18.21
2022-10-23T08:51:57.766Z,18.38
2022-10-23T08:54:46.324Z,18.47
2022-10-23T08:57:17.598Z,18.55
2022-10-23T09:00:14.968Z,18.62
2022-10-23T09:02:45.746Z,18.67
2022-10-23T09:05:45.989Z,18.69
2022-10-23T09:09:07.913Z,18.68
2022-10-23T09:12:08.841Z,18.66
2022-10-23T09:14:55.331Z,18.66
2022-10-23T09:17:33.486Z,18.67
2022-10-23T09:20:13.183Z,18.69
2022-10-23T09:22:42.507Z,18.69
2022-10-23T09:25:15.963Z,18.76
2022-10-23T09:27:56.796Z,18.84
2022-10-23T09:30:40.717Z,18.94
2022-10-23T09:33:27.169Z,19.04
2022-10-23T09:35:59.797Z,19.13
2022-10-23T09:38:39.303Z,19.21
2022-10-23T09:41:17.995Z,19.27
2022-10-23T09:43:46.952Z,19.32
2022-10-23T09:46:20.316Z,19.40
2022-10-23T09:49:00.885Z,19.52
2022-10-23T09:51:31.269Z,19.60
2022-10-23T09:54:00.692Z,19.67
2022-10-23T09:56:33.404Z,19.73
2022-10-23T09:59:13.454Z,19.78
2022-10-23T10:02:27.323Z,19.83
2022-10-23T10:05:31.405Z,19.84
2022-10-23T10:08:49.286Z,19.94
2022-10-23T10:11:44.347Z,20.03
2022-10-23T10:14:56.950Z,20.16
2022-10-23T10:18:02.336Z,20.28
2022-10-23T10:20:36.058Z,20.35
2022-10-23T10:23:29.077Z,20.43
2022-10-23T10:26:42.655Z,20.51
2022-10-23T10:29:41.762Z,20.57
2022-10-23T10:32:45.334Z,20.63
2022-10-23T10:35:38.179Z,20.68
2022-10-23T10:38:12.859Z,20.73
2022-10-23T10:41:12.560Z,20.72
2022-10-23T10:44:13.493Z,20.74
2022-10-23T10:47:28.520Z,20.79
2022-10-23T10:50:12.952Z,20.83
2022-10-23T10:53:23.434Z,20.87
2022-10-23T10:55:54.441Z,20.91
2022-10-23T10:58:40.612Z,20.97
2022-10-23T11:01:41.159Z,21.04
2022-10-23T11:04:48.969Z,21.09
2022-10-23T11:07:24.042Z,21.17
2022-10-23T11:09:52.617Z,21.25
2022-10-23T11:12:29.641Z,21.34
2022-10-23T11:14:57.901Z,21.43
2022-10-23T11:17:39.623Z,21.55
2022-10-23T11:20:35.244Z,21.71
2022-10-23T11:23:28.084Z,21.80
2022-10-23T11:26:22.307Z,21.94
2022-10-23T11:29:13.758Z,22.09
2022-10-23T11:31:56.904Z,22.12
2022-10-23T11:35:15.601Z,22.20
2022-10-23T11:37:43.634Z,22.21
2022-10-23T11:40:13.285Z,22.21
2022-10-23T11:42:41.416Z,22.29
2022-10-23T11:45:30.424Z,22.31
2022-10-23T11:48:25.329Z,22.33
2022-10-23T11:50:59.096Z,22.36
2022-10-23T11:53:32.028Z,22.40
2022-10-23T11:56:13.580Z,22.42
2022-10-23T11:58:49.244Z,22.51
2022-10-23T12:01:44.268Z,22.54
2022-10-23T12:04:14.927Z,22.58
2022-10-23T12:06:53.785Z,22.65
2022-10-23T12:09:37.408Z,22.74
2022-10-23T12:12:07.547Z,22.81
2022-10-23T12:14:49.415Z,22.92
2022-10-23T12:17:22.899Z,23.03
2022-10-23T12:20:02.655Z,23.11
2022-10-23T12:22:51.940Z,23.25
2022-10-23T12:25:37.413Z,23.38
2022-10-23T12:28:59.405Z,23.59
2022-10-23T12:31:58.977Z,23.77
2022-10-23T12:34:26.369Z,23.88
2022-10-23T12:37:12.890Z,23.86
2022-10-23T12:39:40.876Z,23.78
2022-10-23T12:42:21.432Z,23.68
2022-10-23T12:45:20.077Z,23.48
2022-10-23T12:47:48.887Z,23.42
2022-10-23T12:50:34.840Z,23.25
2022-10-23T12:53:07.742Z,23.10
2022-10-23T12:56:03.916Z,22.91
2022-10-23T12:58:35.003Z,22.76
2022-10-23T13:01:07.458Z,22.54
2022-10-23T13:03:36.069Z,22.47
2022-10-23T13:06:05.889Z,22.44
2022-10-23T13:08:47.673Z,22.42
2022-10-23T13:11:32.109Z,22.35
2022-10-23T13:14:13.079Z,22.38
2022-10-23T13:16:40.671Z,22.53
2022-10-23T13:19:24.620Z,22.84
2022-10-23T13:21:52.241Z,23.11
2022-10-23T13:24:22.203Z,23.48
2022-10-23T13:26:49.745Z,24.16
2022-10-23T13:29:31.637Z,24.34
2022-10-23T13:32:23.051Z,24.52
2022-10-23T13:35:04.123Z,24.80
2022-10-23T13:40:27.787Z,25.11
2022-10-23T13:42:57.328Z,25.24
2022-10-23T13:45:27.325Z,25.26
2022-10-23T13:47:55.515Z,25.29
2022-10-23T13:50:23.262Z,25.36
2022-10-23T13:52:50.762Z,25.42
2022-10-23T13:55:25.700Z,25.51
2022-10-23T13:57:53.807Z,25.49
2022-10-23T14:00:22.062Z,25.47
2022-10-23T14:02:49.660Z,25.42
2022-10-23T14:05:17.441Z,25.37
2022-10-23T14:07:45.320Z,25.37
2022-10-23T14:10:13.417Z,25.41
2022-10-23T14:12:44.777Z,25.54
2022-10-23T14:15:13.177Z,25.80
2022-10-23T14:17:41.272Z,26.07
2022-10-23T14:20:10.057Z,26.33
2022-10-23T14:22:37.773Z,26.48
2022-10-23T14:25:06.308Z,26.46
2022-10-23T14:27:34.021Z,26.44
2022-10-23T14:30:02.638Z,26.42
2022-10-23T14:32:31.357Z,26.56
2022-10-23T14:34:59.405Z,26.73
2022-10-23T14:37:26.938Z,26.91
2022-10-23T14:39:54.651Z,27.12
2022-10-23T14:42:22.749Z,27.33
2022-10-23T14:44:50.567Z,27.51
2022-10-23T14:47:21.489Z,27.63
2022-10-23T14:49:52.442Z,27.78
2022-10-23T14:52:20.091Z,27.89
2022-10-23T14:54:47.840Z,27.78
2022-10-23T14:57:17.938Z,27.55
2022-10-23T14:59:46.286Z,27.18
2022-10-23T15:02:14.298Z,26.74
2022-10-23T15:04:42.465Z,26.28
2022-10-23T15:07:10.044Z,25.80
2022-10-23T15:09:39.659Z,25.37
2022-10-23T15:12:07.886Z,24.91
2022-10-23T15:14:35.691Z,24.44
2022-10-23T15:17:03.820Z,24.01
2022-10-23T15:19:31.663Z,23.64
2022-10-23T15:21:59.186Z,23.23
2022-10-23T15:24:27.137Z,22.94
2022-10-23T15:26:54.614Z,22.63
2022-10-23T15:29:23.213Z,22.34
2022-10-23T15:31:59.149Z,22.08
2022-10-23T15:34:29.499Z,21.82
2022-10-23T15:36:57.810Z,21.60
2022-10-23T15:39:33.664Z,21.39
2022-10-23T15:42:04.251Z,21.16
2022-10-23T15:44:34.222Z,20.99
2022-10-23T15:47:01.854Z,20.83
2022-10-23T15:49:30.072Z,20.70
2022-10-23T15:51:58.829Z,20.59
2022-10-23T15:54:29.296Z,20.46
2022-10-23T15:57:01.643Z,20.32
2022-10-23T15:59:31.067Z,20.21
2022-10-23T16:01:59.402Z,20.07
2022-10-23T16:04:28.674Z,19.97
2022-10-23T16:06:56.329Z,19.91
2022-10-23T16:09:24.260Z,19.84
2022-10-23T16:11:51.754Z,19.76
2022-10-23T16:14:19.644Z,19.71
2022-10-23T16:16:47.162Z,19.67
2022-10-23T16:19:14.991Z,19.66
2022-10-23T16:21:42.679Z,19.66
2022-10-23T16:24:11.660Z,19.68
2022-10-23T16:26:39.795Z,19.71
2022-10-23T16:29:09.555Z,19.72
2022-10-23T16:31:37.716Z,19.72
2022-10-23T16:34:06.957Z,19.72
2022-10-23T16:36:35.127Z,19.73
2022-10-23T16:39:21.410Z,19.73
2022-10-23T16:42:07.658Z,19.73
2022-10-23T16:44:54.270Z,19.76
2022-10-23T16:47:21.880Z,19.76
2022-10-23T16:49:49.601Z,19.77
2022-10-23T16:52:17.725Z,19.78
2022-10-23T16:54:45.606Z,19.78
2022-10-23T16:57:13.286Z,19.80
2022-10-23T16:59:43.897Z,19.85
2022-10-23T17:02:14.887Z,19.88
2022-10-23T17:04:42.840Z,19.93
2022-10-23T17:07:13.555Z,19.96
2022-10-23T17:09:43.792Z,19.96
2022-10-23T17:12:11.267Z,19.92
2022-10-23T17:14:40.578Z,19.90
2022-10-23T17:17:09.836Z,19.86
2022-10-23T17:19:45.452Z,19.84
2022-10-23T17:22:16.625Z,19.80
2022-10-23T17:24:47.381Z,19.77
2022-10-23T17:27:18.692Z,19.74
2022-10-23T17:29:46.382Z,19.70
2022-10-23T17:32:13.915Z,19.67
2022-10-23T17:34:41.829Z,19.64
2022-10-23T17:37:10.254Z,19.61
2022-10-23T17:39:37.943Z,19.59
2022-10-23T17:42:05.540Z,19.58
2022-10-23T17:44:33.348Z,19.54
2022-10-23T17:47:00.816Z,19.54
2022-10-23T17:49:28.761Z,19.51
2022-10-23T17:51:58.209Z,19.49
2022-10-23T17:54:27.553Z,19.49
2022-10-23T17:56:56.168Z,19.48
2022-10-23T17:59:24.400Z,19.46
2022-10-23T18:01:52.134Z,19.46
2022-10-23T18:04:21.214Z,19.44
2022-10-23T18:06:52.888Z,19.41
2022-10-23T18:09:23.163Z,19.40
2022-10-23T18:11:51.739Z,19.38
2022-10-23T18:14:21.726Z,19.37
2022-10-23T18:16:50.683Z,19.34
2022-10-23T18:19:21.324Z,19.32
2022-10-23T18:21:49.390Z,19.28
2022-10-23T18:24:17.982Z,19.25
2022-10-23T18:26:47.913Z,19.21
2022-10-23T18:29:17.553Z,19.19
2022-10-23T18:31:48.121Z,19.19
2022-10-23T18:34:23.746Z,19.16
2022-10-23T18:36:54.455Z,19.14
2022-10-23T18:39:25.368Z,19.14
2022-10-23T18:41:56.777Z,19.13
2022-10-23T18:44:29.008Z,19.11
2022-10-23T18:46:59.479Z,19.11
2022-10-23T18:49:28.164Z,19.14
2022-10-23T18:51:56.024Z,19.15
2022-10-23T18:54:26.596Z,19.18
2022-10-23T18:56:54.714Z,19.21
2022-10-23T18:59:23.624Z,19.20
2022-10-23T19:01:51.487Z,19.21
2022-10-23T19:04:19.805Z,19.22
2022-10-23T19:06:49.881Z,19.24
2022-10-23T19:09:18.814Z,19.21
2022-10-23T19:11:46.910Z,19.22
2022-10-23T19:14:14.872Z,19.22
2022-10-23T19:17:04.151Z,19.20
2022-10-23T19:20:09.784Z,19.19
2022-10-23T19:22:41.147Z,19.17
2022-10-23T19:25:15.357Z,19.17
2022-10-23T19:27:44.876Z,19.16
2022-10-23T19:30:19.330Z,19.15
2022-10-23T19:32:51.049Z,19.14
2022-10-23T19:35:21.197Z,19.12
2022-10-23T19:37:48.960Z,19.11
2022-10-23T19:40:17.043Z,19.12
2022-10-23T19:42:44.853Z,19.12
2022-10-23T19:45:15.090Z,19.11
2022-10-23T19:47:43.066Z,19.12
2022-10-23T19:50:12.384Z,19.10
2022-10-23T19:52:40.317Z,19.12
2022-10-23T19:55:09.047Z,19.11
2022-10-23T19:57:37.189Z,19.09
2022-10-23T20:00:07.551Z,19.08
2022-10-23T20:02:38.007Z,19.06
2022-10-23T20:05:07.498Z,19.04
2022-10-23T20:07:37.206Z,19.01
2022-10-23T20:10:08.339Z,19.01
2022-10-23T20:12:35.985Z,18.98
2022-10-23T20:15:04.011Z,18.98
2022-10-23T20:17:31.642Z,18.96
2022-10-23T20:19:59.381Z,18.95
2022-10-23T20:22:27.031Z,18.95
2022-10-23T20:25:27.708Z,18.94
2022-10-23T20:28:05.302Z,18.95
2022-10-23T20:30:42.584Z,18.97
2022-10-23T20:33:13.489Z,18.98
2022-10-23T20:35:42.325Z,19.00
2022-10-23T20:38:10.436Z,19.03
2022-10-23T20:40:38.607Z,19.04
2022-10-23T20:43:06.066Z,19.06
2022-10-23T20:45:34.579Z,19.07
2022-10-23T20:48:02.116Z,19.08
2022-10-23T20:50:29.922Z,19.07
2022-10-23T20:52:57.457Z,19.06
2022-10-23T20:55:25.259Z,19.06
2022-10-23T20:57:53.174Z,19.03
2022-10-23T21:00:21.372Z,19.02
2022-10-23T21:02:51.448Z,19.01
2022-10-23T21:05:20.179Z,19.01
2022-10-23T21:07:47.693Z,19.01
2022-10-23T21:10:15.513Z,19.03
2022-10-23T21:12:46.800Z,19.05
2022-10-23T21:15:17.892Z,19.06
2022-10-23T21:17:55.185Z,19.10
2022-10-23T21:20:30.337Z,19.12
2022-10-23T21:23:00.486Z,19.12
2022-10-23T21:25:28.303Z,19.09
2022-10-23T21:27:56.371Z,19.08
2022-10-23T21:30:24.383Z,19.08
2022-10-23T21:32:51.842Z,19.06
2022-10-23T21:35:20.581Z,19.06
2022-10-23T21:37:48.179Z,19.06
2022-10-23T21:40:16.047Z,19.08
2022-10-23T21:42:43.706Z,19.10
2022-10-23T21:45:11.554Z,19.12
2022-10-23T21:47:39.275Z,19.15
2022-10-23T21:50:07.720Z,19.16
2022-10-23T21:52:35.404Z,19.18
2022-10-23T21:55:04.170Z,19.20
2022-10-23T21:57:34.235Z,19.21
2022-10-23T22:00:02.462Z,19.25
2022-10-23T22:02:40.307Z,19.26
2022-10-23T22:05:08.385Z,19.27
2022-10-23T22:07:36.097Z,19.26
2022-10-23T22:10:04.385Z,19.28
2022-10-23T22:12:32.008Z,19.27
2022-10-23T22:14:59.776Z,19.28
2022-10-23T22:17:27.354Z,19.26
2022-10-23T22:19:55.261Z,19.24
2022-10-23T22:22:23.123Z,19.21
2022-10-23T22:24:50.995Z,19.20
2022-10-23T22:27:18.489Z,19.19
2022-10-23T22:29:46.317Z,19.17
2022-10-23T22:32:14.172Z,19.13
2022-10-23T22:34:52.214Z,19.08
2022-10-23T22:37:21.020Z,19.04
2022-10-23T22:39:53.032Z,19.03
2022-10-23T22:42:20.870Z,19.02
2022-10-23T22:44:48.640Z,19.01
2022-10-23T22:47:16.232Z,19.03
2022-10-23T22:49:44.042Z,19.01
2022-10-23T22:52:11.503Z,18.98
2022-10-23T22:54:39.383Z,18.96
2022-10-23T22:57:06.896Z,18.91
2022-10-23T22:59:34.670Z,18.87
2022-10-23T23:02:02.240Z,18.83
2022-10-23T23:04:38.723Z,18.81
2022-10-23T23:07:13.015Z,18.81
2022-10-23T23:09:43.686Z,18.78
2022-10-23T23:12:14.296Z,18.75
2022-10-23T23:14:43.020Z,18.71
2022-10-23T23:17:11.509Z,18.68
2022-10-23T23:19:39.586Z,18.65
2022-10-23T23:22:07.294Z,18.61
2022-10-23T23:24:35.188Z,18.58
2022-10-23T23:27:02.802Z,18.57
2022-10-23T23:29:30.703Z,18.60
2022-10-23T23:31:58.523Z,18.58
2022-10-23T23:34:26.508Z,18.56
2022-10-23T23:36:53.986Z,18.53
2022-10-23T23:39:21.866Z,18.52
2022-10-23T23:41:49.533Z,18.50
2022-10-23T23:44:17.276Z,18.49
2022-10-23T23:46:44.984Z,18.48
2022-10-23T23:49:12.735Z,18.45
2022-10-23T23:51:40.582Z,18.44
2022-10-23T23:54:08.526Z,18.43
2022-10-23T23:56:36.069Z,18.40
2022-10-23T23:59:03.969Z,18.38
